sensor_id;sensor_type;location;lat;lon;timestamp;pressure;altitude;pressure_sealevel;temperature;humidity
30081;BME280;16902;50.816;12.828;2022-10-03T00:06:51;98198.25;;;9.86;100.00
30081;BME280;16902;50.816;12.828;2022-10-03T00:22:35;98214.69;;;10.02;100.00
30081;BME280;16902;50.816;12.828;2022-10-03T00:28:02;98222.97;;;10.06;100.00
30081;BME280;16902;50.816;12.828;2022-10-03T00:39:17;98231.06;;;10.19;100.00
30081;BME280;16902;50.816;12.828;2022-10-03T01:00:54;98243.63;;;10.16;100.00
30081;BME280;16902;50.816;12.828;2022-10-03T01:06:15;98248.31;;;10.20;100.00
30081;BME280;16902;50.816;12.828;2022-10-03T01:39:36;98248.50;;;9.94;100.00
30081;BME280;16902;50.816;12.828;2022-10-03T01:49:59;98253.84;;;9.85;100.00
30081;BME280;16902;50.816;12.828;2022-10-03T02:01:08;98260.03;;;9.84;100.00
30081;BME280;16902;50.816;12.828;2022-10-03T02:06:36;98258.72;;;9.79;100.00
30081;BME280;16902;50.816;12.828;2022-10-03T02:11:59;98264.41;;;9.67;100.00
30081;BME280;16902;50.816;12.828;2022-10-03T02:17:21;98268.75;;;9.42;100.00
30081;BME280;16902;50.816;12.828;2022-10-03T02:22:29;98276.69;;;9.32;100.00
30081;BME280;16902;50.816;12.828;2022-10-03T02:27:41;98280.09;;;9.33;100.00
30081;BME280;16902;50.816;12.828;2022-10-03T03:31:48;98300.81;;;9.08;100.00
30081;BME280;16902;50.816;12.828;2022-10-03T03:42:25;98321.59;;;9.08;100.00
30081;BME280;16902;50.816;12.828;2022-10-03T03:47:54;98319.47;;;9.04;100.00
30081;BME280;16902;50.816;12.828;2022-10-03T03:58:34;98320.44;;;9.02;100.00
30081;BME280;16902;50.816;12.828;2022-10-03T04:04:03;98325.44;;;8.96;100.00
30081;BME280;16902;50.816;12.828;2022-10-03T04:25:18;98330.66;;;8.96;100.00
30081;BME280;16902;50.816;12.828;2022-10-03T04:30:37;98334.69;;;8.98;100.00
30081;BME280;16902;50.816;12.828;2022-10-03T04:41:31;98337.75;;;8.94;100.00
30081;BME280;16902;50.816;12.828;2022-10-03T04:46:51;98341.50;;;8.91;100.00
30081;BME280;16902;50.816;12.828;2022-10-03T04:57:41;98341.66;;;8.90;100.00
30081;BME280;16902;50.816;12.828;2022-10-03T05:03:14;98342.94;;;8.94;100.00
30081;BME280;16902;50.816;12.828;2022-10-03T05:08:27;98339.53;;;8.93;100.00
30081;BME280;16902;50.816;12.828;2022-10-03T05:13:55;98354.47;;;8.91;100.00
30081;BME280;16902;50.816;12.828;2022-10-03T05:40:23;98365.38;;;8.95;100.00
30081;BME280;16902;50.816;12.828;2022-10-03T05:58:07;98392.66;;;8.99;100.00
30081;BME280;16902;50.816;12.828;2022-10-03T06:41:23;98438.06;;;9.55;100.00
30081;BME280;16902;50.816;12.828;2022-10-03T07:13:59;98479.34;;;9.92;100.00
30081;BME280;16902;50.816;12.828;2022-10-03T07:30:02;98475.72;;;10.27;100.00
30081;BME280;16902;50.816;12.828;2022-10-03T07:45:36;98499.03;;;10.70;100.00
30081;BME280;16902;50.816;12.828;2022-10-03T07:51:03;98502.94;;;10.49;100.00
30081;BME280;16902;50.816;12.828;2022-10-03T08:23:30;98504.56;;;11.07;100.00
30081;BME280;16902;50.816;12.828;2022-10-03T09:00:47;98514.28;;;11.38;100.00
30081;BME280;16902;50.816;12.828;2022-10-03T09:06:22;98515.72;;;11.49;100.00
30081;BME280;16902;50.816;12.828;2022-10-03T09:22:43;98525.41;;;12.27;100.00
30081;BME280;16902;50.816;12.828;2022-10-03T09:38:55;98538.47;;;13.42;100.00
30081;BME280;16902;50.816;12.828;2022-10-03T09:54:56;98528.13;;;12.02;100.00
30081;BME280;16902;50.816;12.828;2022-10-03T10:00:21;98527.13;;;12.12;100.00
30081;BME280;16902;50.816;12.828;2022-10-03T10:06:41;98522.66;;;12.28;100.00
30081;BME280;16902;50.816;12.828;2022-10-03T11:33:53;98533.16;;;14.09;100.00
30081;BME280;16902;50.816;12.828;2022-10-03T11:39:09;98538.75;;;13.91;100.00
30081;BME280;16902;50.816;12.828;2022-10-03T11:54:38;98543.44;;;13.81;100.00
30081;BME280;16902;50.816;12.828;2022-10-03T12:05:06;98539.72;;;13.31;100.00
30081;BME280;16902;50.816;12.828;2022-10-03T12:10:36;98532.88;;;13.30;100.00
30081;BME280;16902;50.816;12.828;2022-10-03T12:15:51;98536.59;;;13.80;100.00
30081;BME280;16902;50.816;12.828;2022-10-03T12:21:08;98523.22;;;15.89;100.00
30081;BME280;16902;50.816;12.828;2022-10-03T12:26:16;98529.72;;;15.30;100.00
30081;BME280;16902;50.816;12.828;2022-10-03T12:31:39;98531.75;;;15.98;100.00
30081;BME280;16902;50.816;12.828;2022-10-03T12:37:02;98521.81;;;15.24;100.00
30081;BME280;16902;50.816;12.828;2022-10-03T12:42:21;98529.88;;;14.79;100.00
30081;BME280;16902;50.816;12.828;2022-10-03T12:47:31;98530.13;;;14.63;100.00
30081;BME280;16902;50.816;12.828;2022-10-03T12:53:05;98532.91;;;15.82;100.00
30081;BME280;16902;50.816;12.828;2022-10-03T12:58:30;98535.91;;;16.88;100.00
30081;BME280;16902;50.816;12.828;2022-10-03T13:14:29;98541.69;;;25.96;100.00
30081;BME280;16902;50.816;12.828;2022-10-03T13:20:04;98536.91;;;22.25;100.00
30081;BME280;16902;50.816;12.828;2022-10-03T13:25:22;98533.97;;;18.01;100.00
30081;BME280;16902;50.816;12.828;2022-10-03T13:30:30;98526.28;;;16.40;100.00
30081;BME280;16902;50.816;12.828;2022-10-03T13:35:38;98520.13;;;15.72;100.00
30081;BME280;16902;50.816;12.828;2022-10-03T13:41:14;98517.03;;;16.03;100.00
30081;BME280;16902;50.816;12.828;2022-10-03T13:46:29;98514.34;;;15.90;100.00
30081;BME280;16902;50.816;12.828;2022-10-03T13:51:40;98511.81;;;15.40;100.00
30081;BME280;16902;50.816;12.828;2022-10-03T13:57:08;98501.16;;;14.50;100.00
30081;BME280;16902;50.816;12.828;2022-10-03T14:02:41;98505.06;;;14.03;100.00
30081;BME280;16902;50.816;12.828;2022-10-03T14:08:13;98508.53;;;13.74;100.00
30081;BME280;16902;50.816;12.828;2022-10-03T14:24:22;98511.28;;;14.53;100.00
30081;BME280;16902;50.816;12.828;2022-10-03T14:35:03;98514.22;;;14.86;100.00
30081;BME280;16902;50.816;12.828;2022-10-03T14:40:19;98504.44;;;14.73;100.00
30081;BME280;16902;50.816;12.828;2022-10-03T14:45:27;98500.31;;;14.28;100.00
30081;BME280;16902;50.816;12.828;2022-10-03T14:50:30;98492.53;;;13.98;100.00
30081;BME280;16902;50.816;12.828;2022-10-03T15:06:29;98487.19;;;14.06;100.00
30081;BME280;16902;50.816;12.828;2022-10-03T15:11:35;98486.97;;;13.72;100.00
30081;BME280;16902;50.816;12.828;2022-10-03T15:16:45;98481.91;;;13.41;100.00
30081;BME280;16902;50.816;12.828;2022-10-03T15:21:51;98483.00;;;13.08;100.00
30081;BME280;16902;50.816;12.828;2022-10-03T15:26:58;98490.59;;;12.80;100.00
30081;BME280;16902;50.816;12.828;2022-10-03T15:32:03;98493.41;;;12.56;100.00
30081;BME280;16902;50.816;12.828;2022-10-03T15:37:15;98494.34;;;12.09;100.00
30081;BME280;16902;50.816;12.828;2022-10-03T15:42:26;98496.88;;;11.94;100.00
30081;BME280;16902;50.816;12.828;2022-10-03T15:47:32;98492.16;;;11.90;100.00
30081;BME280;16902;50.816;12.828;2022-10-03T15:52:42;98483.50;;;11.89;100.00
30081;BME280;16902;50.816;12.828;2022-10-03T15:57:46;98483.66;;;11.79;100.00
30081;BME280;16902;50.816;12.828;2022-10-03T16:02:53;98471.69;;;11.62;100.00
30081;BME280;16902;50.816;12.828;2022-10-03T16:08:15;98486.97;;;11.73;100.00
30081;BME280;16902;50.816;12.828;2022-10-03T16:13:41;98485.06;;;12.06;100.00
30081;BME280;16902;50.816;12.828;2022-10-03T16:18:55;98480.09;;;12.20;100.00
30081;BME280;16902;50.816;12.828;2022-10-03T16:24:02;98471.91;;;12.23;100.00
30081;BME280;16902;50.816;12.828;2022-10-03T16:29:19;98480.44;;;12.17;100.00
30081;BME280;16902;50.816;12.828;2022-10-03T16:34:24;98474.31;;;12.01;100.00
30081;BME280;16902;50.816;12.828;2022-10-03T16:39:35;98488.59;;;11.82;100.00
30081;BME280;16902;50.816;12.828;2022-10-03T16:49:53;98493.16;;;11.80;100.00
30081;BME280;16902;50.816;12.828;2022-10-03T16:55:17;98487.13;;;11.80;100.00
30081;BME280;16902;50.816;12.828;2022-10-03T17:05:25;98493.63;;;11.84;100.00
30081;BME280;16902;50.816;12.828;2022-10-03T17:10:38;98496.91;;;11.86;100.00
30081;BME280;16902;50.816;12.828;2022-10-03T17:15:46;98497.38;;;11.81;100.00
30081;BME280;16902;50.816;12.828;2022-10-03T17:21:17;98495.28;;;11.69;100.00
30081;BME280;16902;50.816;12.828;2022-10-03T17:26:32;98499.53;;;11.70;100.00
30081;BME280;16902;50.816;12.828;2022-10-03T17:31:42;98497.28;;;11.67;100.00
30081;BME280;16902;50.816;12.828;2022-10-03T17:37:10;98506.59;;;11.61;100.00
30081;BME280;16902;50.816;12.828;2022-10-03T17:42:37;98502.88;;;11.39;100.00
30081;BME280;16902;50.816;12.828;2022-10-03T17:47:51;98501.63;;;11.11;100.00
30081;BME280;16902;50.816;12.828;2022-10-03T17:52:55;98499.22;;;10.93;100.00
30081;BME280;16902;50.816;12.828;2022-10-03T17:58:02;98494.31;;;10.73;100.00
30081;BME280;16902;50.816;12.828;2022-10-03T18:03:14;98493.00;;;10.61;100.00
30081;BME280;16902;50.816;12.828;2022-10-03T18:08:38;98494.28;;;10.49;100.00
30081;BME280;16902;50.816;12.828;2022-10-03T18:13:48;98496.41;;;10.62;100.00
30081;BME280;16902;50.816;12.828;2022-10-03T18:29:34;98525.22;;;10.52;100.00
30081;BME280;16902;50.816;12.828;2022-10-03T18:34:48;98526.69;;;10.54;100.00
30081;BME280;16902;50.816;12.828;2022-10-03T18:39:54;98510.25;;;10.54;100.00
30081;BME280;16902;50.816;12.828;2022-10-03T18:44:59;98507.47;;;10.55;100.00
30081;BME280;16902;50.816;12.828;2022-10-03T18:50:08;98502.25;;;10.47;100.00
30081;BME280;16902;50.816;12.828;2022-10-03T18:55:25;98504.03;;;10.39;100.00
30081;BME280;16902;50.816;12.828;2022-10-03T19:00:44;98508.59;;;10.37;100.00
30081;BME280;16902;50.816;12.828;2022-10-03T19:06:03;98526.31;;;10.33;100.00
30081;BME280;16902;50.816;12.828;2022-10-03T19:21:38;98526.81;;;10.37;100.00
30081;BME280;16902;50.816;12.828;2022-10-03T19:26:44;98517.34;;;10.27;100.00
30081;BME280;16902;50.816;12.828;2022-10-03T19:32:17;98518.25;;;10.18;100.00
30081;BME280;16902;50.816;12.828;2022-10-03T19:37:39;98511.59;;;10.16;100.00
30081;BME280;16902;50.816;12.828;2022-10-03T19:42:49;98512.72;;;10.13;100.00
30081;BME280;16902;50.816;12.828;2022-10-03T19:47:58;98518.09;;;10.12;100.00
30081;BME280;16902;50.816;12.828;2022-10-03T19:53:10;98514.50;;;10.13;100.00
30081;BME280;16902;50.816;12.828;2022-10-03T19:58:19;98521.97;;;10.08;100.00
30081;BME280;16902;50.816;12.828;2022-10-03T20:08:56;98521.50;;;10.12;100.00
30081;BME280;16902;50.816;12.828;2022-10-03T20:14:00;98516.13;;;10.14;100.00
30081;BME280;16902;50.816;12.828;2022-10-03T20:19:12;98515.84;;;10.17;100.00
30081;BME280;16902;50.816;12.828;2022-10-03T20:24:43;98512.25;;;10.18;100.00
30081;BME280;16902;50.816;12.828;2022-10-03T20:35:03;98510.16;;;10.21;100.00
30081;BME280;16902;50.816;12.828;2022-10-03T20:40:33;98510.28;;;10.20;100.00
30081;BME280;16902;50.816;12.828;2022-10-03T20:45:37;98511.59;;;10.16;100.00
30081;BME280;16902;50.816;12.828;2022-10-03T20:50:47;98503.59;;;10.09;100.00
30081;BME280;16902;50.816;12.828;2022-10-03T20:56:05;98504.25;;;10.03;100.00
30081;BME280;16902;50.816;12.828;2022-10-03T21:01:21;98501.00;;;10.01;100.00
30081;BME280;16902;50.816;12.828;2022-10-03T21:06:33;98499.34;;;10.00;100.00
30081;BME280;16902;50.816;12.828;2022-10-03T21:11:43;98496.91;;;9.98;100.00
30081;BME280;16902;50.816;12.828;2022-10-03T21:16:50;98505.81;;;9.96;100.00
30081;BME280;16902;50.816;12.828;2022-10-03T21:21:55;98495.41;;;9.96;100.00
30081;BME280;16902;50.816;12.828;2022-10-03T21:27:01;98490.88;;;9.98;100.00
30081;BME280;16902;50.816;12.828;2022-10-03T21:37:26;98494.59;;;9.95;100.00
30081;BME280;16902;50.816;12.828;2022-10-03T21:48:21;98487.31;;;9.99;100.00
30081;BME280;16902;50.816;12.828;2022-10-03T21:53:37;98481.00;;;10.01;100.00
30081;BME280;16902;50.816;12.828;2022-10-03T22:09:10;98484.88;;;10.05;100.00
30081;BME280;16902;50.816;12.828;2022-10-03T22:31:16;98468.16;;;10.08;100.00
30081;BME280;16902;50.816;12.828;2022-10-03T22:36:21;98468.31;;;10.07;100.00
30081;BME280;16902;50.816;12.828;2022-10-03T22:41:28;98468.66;;;10.12;100.00
30081;BME280;16902;50.816;12.828;2022-10-03T22:46:32;98464.78;;;10.16;100.00
30081;BME280;16902;50.816;12.828;2022-10-03T22:51:35;98468.00;;;10.18;100.00
30081;BME280;16902;50.816;12.828;2022-10-03T22:56:50;98465.41;;;10.18;100.00
30081;BME280;16902;50.816;12.828;2022-10-03T23:01:55;98469.03;;;10.25;100.00
30081;BME280;16902;50.816;12.828;2022-10-03T23:12:00;98461.22;;;10.25;100.00
30081;BME280;16902;50.816;12.828;2022-10-03T23:17:27;98462.06;;;10.25;100.00
30081;BME280;16902;50.816;12.828;2022-10-03T23:22:35;98453.09;;;10.28;100.00
30081;BME280;16902;50.816;12.828;2022-10-03T23:27:41;98452.13;;;10.29;100.00
30081;BME280;16902;50.816;12.828;2022-10-03T23:37:48;98453.09;;;10.28;100.00
30081;BME280;16902;50.816;12.828;2022-10-03T23:43:29;98451.59;;;10.17;100.00
30081;BME280;16902;50.816;12.828;2022-10-03T23:48:49;98451.41;;;10.19;100.00
30081;BME280;16902;50.816;12.828;2022-10-03T23:53:53;98460.03;;;10.19;100.00
